Bradford County (N27)
Towanda, PA
Field Elevation: 730
Lat: 41°44.40N  Long: 76°26.83W
CTAF/Unicom Freq: 123.0000
   
     For Weather-by-Phone, call (570) 265-1024
Weather Advisories
2019-10-17   08:05 Z
Altimeter 29.38" Hg
Wind 250° @ 13 KT
Gusts 17 KT
Visibility 10 SM
Ceiling FEW030
Temperature 9° C (48° F)
Dewpoint 4° C (39° F)
Relative Humidity 75%
Density Altitude --
Condensation Altitude 3,000 feet
Wind Chill: 6° C (43° F)
Wind and Runways
Indicated Runway = 23
Headwind = 12 kt
Crosswind = 4 kt
History
 
 
 
More Info
All DigiWx sites map
NOAA Forecast
 
Airport IQ 5010
(LHV) Lock Haven
(PS81) Robert Packer Hospital
 
about DigiWx
 
FAA Disclaimer: The data displayed is for advisory purposes only and is not to be used for flight planning or operations. For official data, please call (570) 265-1024 to hear the current automated AWOS voice message.
  METAR N27 170805Z AUTO 25013G17KT 10 SM FEW030 09/04 A2938